Estrela De Sesimbra — CUKV2 — position and weather

sailwx.info

Track history (hours):
 
Tides and Currents Weather Stations Pressure Air Temp Water Temp Dewpoint Dewpoint Depression Visibility Wind Speed Wind Dir Waves Ship Positions

Estrela De Sesimbra

Last reported at 2017-Sep-26 22:00 UTC. Time now 2017-Sep-26 22:06 UTC.
Position N 38°25' W 009°16'.

Length 24 m; draft 3.2 m.

Type: Fishing. MMSI: 263208000.

Date/timePositionNaut miles runAvg speedWind from/ knotsBaromVisibWave heightAir tempDewpointWater temp
2017-Sep-26 22:00N 38°25' W 009°16'6 8.3
2017-Sep-26 21:14N 38°26' W 009°07'1 4.2
2017-Sep-26 20:59N 38°26' W 009°07'0 0.0
2017-Sep-26 20:30N 38°26' W 009°07'0 0.0
2017-Sep-26 20:00N 38°26' W 009°07'0 0.0
2017-Sep-26 19:29N 38°26' W 009°07'0 0.0
2017-Sep-26 19:00N 38°26' W 009°07'0 0.0
2017-Sep-26 18:30N 38°26' W 009°07'0 0.0
2017-Sep-26 18:00N 38°26' W 009°07'0 0.0
2017-Sep-26 17:30N 38°26' W 009°07'0 0.0
2017-Sep-26 17:00N 38°26' W 009°07'0 0.0
2017-Sep-26 16:30N 38°26' W 009°07'0 0.0
2017-Sep-26 16:00N 38°26' W 009°07'0 0.0
2017-Sep-26 15:30N 38°26' W 009°07'0 0.0
2017-Sep-26 15:00N 38°26' W 009°07'0 0.0
2017-Sep-26 14:30N 38°26' W 009°07'0 0.0
2017-Sep-26 14:01N 38°26' W 009°07'0 0.0
2017-Sep-26 13:30N 38°26' W 009°07'0 0.0
2017-Sep-26 13:01N 38°26' W 009°07'0 0.0
2017-Sep-26 12:30N 38°26' W 009°07'0 0.0
2017-Sep-26 12:00N 38°26' W 009°07'0 0.0
2017-Sep-26 11:30N 38°26' W 009°07'0 0.0
2017-Sep-26 11:00N 38°26' W 009°07'0 0.0
2017-Sep-26 10:30N 38°26' W 009°07'0 0.0
2017-Sep-26 10:00N 38°26' W 009°07'0 0.0
2017-Sep-26 09:30N 38°26' W 009°07'0 0.0
2017-Sep-26 09:00N 38°26' W 009°07'0 0.0
2017-Sep-26 08:30N 38°26' W 009°07'0 0.0
2017-Sep-26 08:00N 38°26' W 009°07'0 0.0
2017-Sep-26 07:29N 38°26' W 009°07'0 0.0
2017-Sep-26 07:00N 38°26' W 009°07'0 0.0
2017-Sep-26 06:30N 38°26' W 009°07'0 0.0
2017-Sep-26 06:00N 38°26' W 009°07'0 0.0
2017-Sep-26 05:31N 38°26' W 009°07'0 0.0
2017-Sep-26 05:00N 38°26' W 009°07'0 0.0
2017-Sep-26 04:29N 38°26' W 009°07'0 0.0
2017-Sep-26 04:00N 38°26' W 009°07'0 0.0
2017-Sep-26 03:30N 38°26' W 009°07'0 0.0
2017-Sep-26 03:00N 38°26' W 009°07'0 0.0
2017-Sep-26 02:30N 38°26' W 009°07'0 0.0
2017-Sep-26 01:58N 38°26' W 009°07'5 6.8
2017-Sep-26 01:14N 38°24' W 009°12'2 8.7
2017-Sep-26 00:58N 38°25' W 009°15'4 8.5
2017-Sep-26 00:30N 38°26' W 009°20'4 8.9
2017-Sep-26 00:00N 38°29' W 009°25'5 9.0
2017-Sep-25 23:30N 38°31' W 009°29'4 8.8
2017-Sep-25 23:00N 38°33' W 009°34'5 9.1
2017-Sep-25 22:30N 38°36' W 009°39'4 8.9
2017-Sep-25 22:00N 38°38' W 009°44'4 8.8
2017-Sep-25 21:30N 38°40' W 009°49'4 8.7
2017-Sep-25 21:00N 38°43' W 009°54'5 9.0
2017-Sep-25 20:30N 38°45' W 009°58'4 8.9
2017-Sep-25 20:00N 38°48' W 010°03'5 9.9
2017-Sep-25 19:30N 38°51' W 010°08'510.3
2017-Sep-25 19:00N 38°54' W 010°13'3 5.7
2017-Sep-25 18:30N 38°57' W 010°14'3 4.8
2017-Sep-25 17:58N 38°59' W 010°16'2 4.1
2017-Sep-25 17:29N 38°60' W 010°18'2 4.2
2017-Sep-25 17:00N 39°01' W 010°20'2 3.2
2017-Sep-25 16:26N 39°03' W 010°21'1 1.8
2017-Sep-25 16:00N 39°02' W 010°21'0 0.3
2017-Sep-25 15:30N 39°02' W 010°21'16 1.4
2017-Sep-25 03:43N 38°48' W 010°09'3 8.6
2017-Sep-25 03:24N 38°47' W 010°06'3 8.4
2017-Sep-25 02:59N 38°45' W 010°02'4 8.8
2017-Sep-25 02:30N 38°43' W 009°57'5 9.0
2017-Sep-25 02:00N 38°41' W 009°52'4 8.7
2017-Sep-25 01:30N 38°39' W 009°47'4 8.2
2017-Sep-25 01:00N 38°37' W 009°43'4 8.2
2017-Sep-25 00:30N 38°35' W 009°39'4 8.5
2017-Sep-25 00:00N 38°32' W 009°34'4 8.4
2017-Sep-24 23:31N 38°30' W 009°29'4 8.4
2017-Sep-24 23:00N 38°28' W 009°24'4 8.7
2017-Sep-24 22:30N 38°26' W 009°19'4 8.6
2017-Sep-24 22:00N 38°25' W 009°15'6 8.2
2017-Sep-24 21:16N 38°26' W 009°07'1 2.0
2017-Sep-24 21:00N 38°26' W 009°07'0 0.0
2017-Sep-24 20:30N 38°26' W 009°07'0 0.0
2017-Sep-24 20:00N 38°26' W 009°07'0 0.0
2017-Sep-24 19:30N 38°26' W 009°07'0 0.0
2017-Sep-24 19:00N 38°26' W 009°07'0 0.0
2017-Sep-24 18:30N 38°26' W 009°07'0 0.0
2017-Sep-24 18:00N 38°26' W 009°07'0 0.0
2017-Sep-24 17:30N 38°26' W 009°07'0 0.0
2017-Sep-24 17:00N 38°26' W 009°07'0 0.0
2017-Sep-24 16:30N 38°26' W 009°07'0 0.0
2017-Sep-24 16:00N 38°26' W 009°07'0 0.0
2017-Sep-24 15:30N 38°26' W 009°07'0 0.0
2017-Sep-24 15:00N 38°26' W 009°07'0 0.0
2017-Sep-24 14:30N 38°26' W 009°07'0 0.0
2017-Sep-24 14:00N 38°26' W 009°07'0 0.0
2017-Sep-24 13:30N 38°26' W 009°07'0 0.0
2017-Sep-24 13:00N 38°26' W 009°07'0 0.0
2017-Sep-24 12:30N 38°26' W 009°07'0 0.0
2017-Sep-24 12:00N 38°26' W 009°07'0 0.0
2017-Sep-24 11:30N 38°26' W 009°07'0 0.0
2017-Sep-24 11:00N 38°26' W 009°07'0 0.0
2017-Sep-24 10:30N 38°26' W 009°07'0 0.0
2017-Sep-24 10:00N 38°26' W 009°07'0 0.0
2017-Sep-24 09:30N 38°26' W 009°07'0 0.0
2017-Sep-24 09:00N 38°26' W 009°07'0 0.0
2017-Sep-24 08:30N 38°26' W 009°07'0 0.0
2017-Sep-24 08:00N 38°26' W 009°07'0 0.0
2017-Sep-24 07:30N 38°26' W 009°07'0 0.0
2017-Sep-24 07:00N 38°26' W 009°07'0 0.0
2017-Sep-24 06:30N 38°26' W 009°07'3 5.7
2017-Sep-24 06:00N 38°25' W 009°10'4 8.2
2017-Sep-24 05:29N 38°25' W 009°15'4 8.5
2017-Sep-24 05:00N 38°27' W 009°20'4 8.9
2017-Sep-24 04:30N 38°28' W 009°25'4 8.9
2017-Sep-24 04:00N 38°31' W 009°30'5 9.2
2017-Sep-24 03:30N 38°33' W 009°35'5 9.1
2017-Sep-24 03:00N 38°35' W 009°40'5 9.1
2017-Sep-24 02:30N 38°38' W 009°45'4 8.9
2017-Sep-24 02:00N 38°41' W 009°49'4 8.5
2017-Sep-24 01:30N 38°43' W 009°54'4 8.4
2017-Sep-24 01:00N 38°45' W 009°58'4 8.6
2017-Sep-24 00:31N 38°48' W 010°03'5 9.1
2017-Sep-24 00:00N 38°50' W 010°08'5 9.0
2017-Sep-23 23:30N 38°53' W 010°13'2 5.0
2017-Sep-23 23:00N 38°55' W 010°14'2 4.6
2017-Sep-23 22:30N 38°57' W 010°15'2 4.3
2017-Sep-23 22:00N 38°59' W 010°17'2 4.0
2017-Sep-23 21:30N 39°00' W 010°19'2 4.4
2017-Sep-23 21:00N 39°02' W 010°20'1 1.1
2017-Sep-23 20:30N 39°02' W 010°20'4 8.2
2017-Sep-23 20:00N 38°58' W 010°17'56 1.3
2017-Sep-22 02:00N 38°26' W 009°19'5 9.0
2017-Sep-22 01:30N 38°28' W 009°24'5 9.2
2017-Sep-22 00:58N 38°31' W 009°30'4 9.3
2017-Sep-22 00:30N 38°33' W 009°34'5 9.3
2017-Sep-22 00:00N 38°35' W 009°40'5 9.1
2017-Sep-21 23:30N 38°38' W 009°44'4 9.0
2017-Sep-21 23:00N 38°40' W 009°49'4 8.6
2017-Sep-21 22:30N 38°43' W 009°54'4 8.8
2017-Sep-21 22:00N 38°45' W 009°58'5 9.7
2017-Sep-21 21:30N 38°48' W 010°03'16 5.9
2017-Sep-21 18:47N 38°60' W 010°18'14 0.9
2017-Sep-21 03:30N 38°48' W 010°08'4 8.2
2017-Sep-21 03:01N 38°46' W 010°03'4 8.4
2017-Sep-21 02:30N 38°44' W 009°58'4 8.6
2017-Sep-21 01:59N 38°42' W 009°53'4 8.3
2017-Sep-21 01:30N 38°40' W 009°49'4 8.7
2017-Sep-21 01:00N 38°38' W 009°44'4 8.3
2017-Sep-21 00:31N 38°36' W 009°39'4 8.2
2017-Sep-21 00:00N 38°34' W 009°35'4 8.2
2017-Sep-20 23:30N 38°31' W 009°30'4 8.1
2017-Sep-20 23:01N 38°30' W 009°26'4 8.5
2017-Sep-20 22:30N 38°28' W 009°21'4 8.6
2017-Sep-20 22:00N 38°26' W 009°16'6 8.1
2017-Sep-20 21:14N 38°25' W 009°08'2 6.9
2017-Sep-20 21:00N 38°26' W 009°07'0 0.0
2017-Sep-20 20:30N 38°26' W 009°07'0 0.0
2017-Sep-20 20:00N 38°26' W 009°07'0 0.0
2017-Sep-20 19:30N 38°26' W 009°07'0 0.0
2017-Sep-20 19:00N 38°26' W 009°07'0 0.0
2017-Sep-20 18:30N 38°26' W 009°07'0 0.0
2017-Sep-20 18:00N 38°26' W 009°07'0 0.0
2017-Sep-20 17:30N 38°26' W 009°07'0 0.0
2017-Sep-20 17:00N 38°26' W 009°07'0 0.0
2017-Sep-20 16:30N 38°26' W 009°07'0 0.0
2017-Sep-20 16:00N 38°26' W 009°07'0 0.0
2017-Sep-20 15:30N 38°26' W 009°07'0 0.0
2017-Sep-20 15:00N 38°26' W 009°07'0 0.0
2017-Sep-20 14:00N 38°26' W 009°07'0 0.0
2017-Sep-20 13:30N 38°26' W 009°07'0 0.0
2017-Sep-20 13:00N 38°26' W 009°07'0 0.0
2017-Sep-20 12:29N 38°26' W 009°07'0 0.0
2017-Sep-20 12:00N 38°26' W 009°07'0 0.0
2017-Sep-20 11:30N 38°26' W 009°07'0 0.0
2017-Sep-20 11:00N 38°26' W 009°07'0 0.0
2017-Sep-20 10:30N 38°26' W 009°07'0 0.0
2017-Sep-20 10:00N 38°26' W 009°07'0 0.0
2017-Sep-20 09:10N 38°26' W 009°07'0 0.0
2017-Sep-20 09:00N 38°26' W 009°07'0 0.0
2017-Sep-20 08:28N 38°26' W 009°07'0 0.0
2017-Sep-20 08:00N 38°26' W 009°07'0 0.0
2017-Sep-20 07:14N 38°26' W 009°07'0 0.0
2017-Sep-20 07:00N 38°26' W 009°07'0 0.1
2017-Sep-20 06:30N 38°26' W 009°07'4 7.7
2017-Sep-20 05:59N 38°24' W 009°11'4 8.6
2017-Sep-20 05:30N 38°24' W 009°16'5 9.0
2017-Sep-20 05:00N 38°26' W 009°21'5 9.6
2017-Sep-20 04:30N 38°29' W 009°26'5 9.2
2017-Sep-20 03:59N 38°33' W 009°31'4 8.9
2017-Sep-20 03:30N 38°35' W 009°35'4 8.6
2017-Sep-20 03:00N 38°38' W 009°39'5 9.0
2017-Sep-20 02:30N 38°40' W 009°44'2 4.0
2017-Sep-20 02:00N 38°41' W 009°46'3 5.4
2017-Sep-20 01:30N 38°41' W 009°50'4 8.7
2017-Sep-20 00:59N 38°44' W 009°54'4 8.8
2017-Sep-20 00:30N 38°46' W 009°59'4 8.9
2017-Sep-20 00:01N 38°49' W 010°04'5 8.6
2017-Sep-19 23:29N 38°51' W 010°09'12 5.0
2017-Sep-19 21:10N 38°60' W 010°18'1 4.7
2017-Sep-19 20:52N 39°01' W 010°20'3 1.4
2017-Sep-19 19:00N 38°58' W 010°18'0 0.3
2017-Sep-19 17:45N 38°58' W 010°18'0 0.5
2017-Sep-19 17:20N 38°58' W 010°17'0 0.3
2017-Sep-19 17:01N 38°58' W 010°17'0 0.3
2017-Sep-19 16:09N 38°58' W 010°17'0 0.5
2017-Sep-19 15:52N 38°58' W 010°17'0 0.6
2017-Sep-19 15:26N 38°58' W 010°17'3 0.6
2017-Sep-19 11:21N 38°56' W 010°15'9 1.1
2017-Sep-19 03:07N 38°48' W 010°08'1 7.5
2017-Sep-19 02:58N 38°48' W 010°07'4 7.8
2017-Sep-19 02:29N 38°45' W 010°04'4 8.2
2017-Sep-19 02:00N 38°43' W 009°59'4 8.0
2017-Sep-19 01:30N 38°41' W 009°55'4 7.9
2017-Sep-19 01:00N 38°39' W 009°51'4 7.7
2017-Sep-19 00:31N 38°37' W 009°46'4 8.4
2017-Sep-19 00:01N 38°35' W 009°42'4 8.5
2017-Sep-18 23:30N 38°33' W 009°37'4 8.6
2017-Sep-18 23:00N 38°31' W 009°32'4 8.5
2017-Sep-18 22:30N 38°29' W 009°27'4 8.6
2017-Sep-18 22:00N 38°27' W 009°22'4 8.3
2017-Sep-18 21:30N 38°25' W 009°18'4 8.2
2017-Sep-18 21:00N 38°24' W 009°13'4 8.6
2017-Sep-18 20:30N 38°25' W 009°08'1 2.6
2017-Sep-18 20:00N 38°26' W 009°07'0 0.0
2017-Sep-18 19:30N 38°26' W 009°07'0 0.0
2017-Sep-18 19:00N 38°26' W 009°07'0 0.0
2017-Sep-18 18:30N 38°26' W 009°07'0 0.0
2017-Sep-18 18:00N 38°26' W 009°07'0 0.0
2017-Sep-18 17:30N 38°26' W 009°07'0 0.0
2017-Sep-18 17:00N 38°26' W 009°07'0 0.0
2017-Sep-18 16:30N 38°26' W 009°07'0 0.0
2017-Sep-18 16:00N 38°26' W 009°07'0 0.0
2017-Sep-18 15:30N 38°26' W 009°07'0 0.0
2017-Sep-18 15:00N 38°26' W 009°07'0 0.0
2017-Sep-18 14:30N 38°26' W 009°07'0 0.0
2017-Sep-18 14:00N 38°26' W 009°07'0 0.0
2017-Sep-18 13:30N 38°26' W 009°07'0 0.0
2017-Sep-18 13:00N 38°26' W 009°07'0 0.0
2017-Sep-18 12:30N 38°26' W 009°07'0 0.0
2017-Sep-18 12:00N 38°26' W 009°07'0 0.0
2017-Sep-18 11:30N 38°26' W 009°07'0 0.0
2017-Sep-18 11:00N 38°26' W 009°07'0 0.0
2017-Sep-18 10:30N 38°26' W 009°07'0 0.0
2017-Sep-18 10:00N 38°26' W 009°07'0 0.0
2017-Sep-18 09:30N 38°26' W 009°07'0 0.0
2017-Sep-18 09:00N 38°26' W 009°07'0 0.0
2017-Sep-18 08:29N 38°26' W 009°07'0 0.0
2017-Sep-18 08:00N 38°26' W 009°07'0 0.0
2017-Sep-18 07:30N 38°26' W 009°07'0 0.0
2017-Sep-18 07:00N 38°26' W 009°07'0 0.0
2017-Sep-18 06:30N 38°26' W 009°07'0 0.0
2017-Sep-18 05:59N 38°26' W 009°07'0 0.0
2017-Sep-18 05:30N 38°26' W 009°07'0 0.0
2017-Sep-18 05:00N 38°26' W 009°07'0 0.0
2017-Sep-18 04:30N 38°26' W 009°07'0 0.0
2017-Sep-18 04:00N 38°26' W 009°07'0 0.0
2017-Sep-18 03:30N 38°26' W 009°07'0 0.0
2017-Sep-18 03:00N 38°26' W 009°07'0 0.0
2017-Sep-18 02:30N 38°26' W 009°07'0 0.0
2017-Sep-18 02:00N 38°26' W 009°07'0 0.0
2017-Sep-18 01:30N 38°26' W 009°07'0 0.0
2017-Sep-18 01:00N 38°26' W 009°07'0 0.0
2017-Sep-18 00:27N 38°26' W 009°07'0 0.0
2017-Sep-18 00:00N 38°26' W 009°07'0 0.0
2017-Sep-17 23:30N 38°26' W 009°07'0 0.0
2017-Sep-17 23:00N 38°26' W 009°07'0 0.0
2017-Sep-17 22:30N 38°26' W 009°07'0 0.0
2017-Sep-17 22:00N 38°26' W 009°07'0 0.0
2017-Sep-17 21:30N 38°26' W 009°07'0 0.0
2017-Sep-17 20:59N 38°26' W 009°07'0 0.0
2017-Sep-17 20:30N 38°26' W 009°07'0 0.0
2017-Sep-17 20:00N 38°26' W 009°07'0 0.0
2017-Sep-17 19:30N 38°26' W 009°07'0 0.0
2017-Sep-17 19:00N 38°26' W 009°07'0 0.0
2017-Sep-17 18:30N 38°26' W 009°07'0 0.0
2017-Sep-17 18:00N 38°26' W 009°07'0 0.0
2017-Sep-17 17:30N 38°26' W 009°07'0 0.0
2017-Sep-17 17:00N 38°26' W 009°07'2 3.2
2017-Sep-17 16:30N 38°25' W 009°08'4 8.3
2017-Sep-17 16:00N 38°24' W 009°13'4 8.9
2017-Sep-17 15:30N 38°27' W 009°18'5 9.2
2017-Sep-17 15:00N 38°29' W 009°23'5 9.1
2017-Sep-17 14:30N 38°32' W 009°28'5 9.3
2017-Sep-17 14:00N 38°35' W 009°32'5 9.1
2017-Sep-17 13:30N 38°38' W 009°36'4 8.9
2017-Sep-17 13:01N 38°41' W 009°41'4 8.9
2017-Sep-17 12:30N 38°43' W 009°46'4 8.9
2017-Sep-17 12:00N 38°46' W 009°51'5 9.4
2017-Sep-17 11:30N 38°48' W 009°56'4 8.8
2017-Sep-17 11:00N 38°50' W 010°00'5 8.9
2017-Sep-17 10:24N 38°54' W 010°06'4 8.9
2017-Sep-17 10:00N 38°56' W 010°10'4 9.2
2017-Sep-17 09:31N 38°58' W 010°15'11 2.0
2017-Sep-17 04:14N 38°50' W 010°05'2 7.2
2017-Sep-17 03:55N 38°49' W 010°03'3 7.1
2017-Sep-17 03:31N 38°48' W 009°59'4 7.4
2017-Sep-17 03:00N 38°46' W 009°55'4 7.5
2017-Sep-17 02:30N 38°44' W 009°51'4 7.5
2017-Sep-17 02:00N 38°42' W 009°47'4 7.5
2017-Sep-17 01:31N 38°39' W 009°43'4 7.5
2017-Sep-17 01:00N 38°37' W 009°39'4 8.0
2017-Sep-17 00:30N 38°35' W 009°35'4 8.0
2017-Sep-17 00:00N 38°33' W 009°31'4 8.1
2017-Sep-16 23:30N 38°31' W 009°27'4 7.9
2017-Sep-16 23:00N 38°28' W 009°23'4 7.9
2017-Sep-16 22:30N 38°26' W 009°18'4 7.9
2017-Sep-16 22:00N 38°24' W 009°14'  
Track history (hours):
 
Tides and Currents Weather Stations Pressure Air Temp Water Temp Dewpoint Dewpoint Depression Visibility Wind Speed Wind Dir Waves Ship Positions

Estrela De Sesimbra

Last reported at 2017-Sep-26 22:00 UTC. Time now 2017-Sep-26 22:06 UTC.
Position N 38°25' W 009°16'.

Length 24 m; draft 3.2 m.

Type: Fishing. MMSI: 263208000.

Date/timePositionNaut miles runAvg speedWind from/ knotsBaromVisibWave heightAir tempDewpointWater temp
2017-Sep-26 22:00N 38°25' W 009°16'6 8.3
2017-Sep-26 21:14N 38°26' W 009°07'1 4.2
2017-Sep-26 20:59N 38°26' W 009°07'0 0.0
2017-Sep-26 20:30N 38°26' W 009°07'0 0.0
2017-Sep-26 20:00N 38°26' W 009°07'0 0.0
2017-Sep-26 19:29N 38°26' W 009°07'0 0.0
2017-Sep-26 19:00N 38°26' W 009°07'0 0.0
2017-Sep-26 18:30N 38°26' W 009°07'0 0.0
2017-Sep-26 18:00N 38°26' W 009°07'0 0.0
2017-Sep-26 17:30N 38°26' W 009°07'0 0.0
2017-Sep-26 17:00N 38°26' W 009°07'0 0.0
2017-Sep-26 16:30N 38°26' W 009°07'0 0.0
2017-Sep-26 16:00N 38°26' W 009°07'0 0.0
2017-Sep-26 15:30N 38°26' W 009°07'0 0.0
2017-Sep-26 15:00N 38°26' W 009°07'0 0.0
2017-Sep-26 14:30N 38°26' W 009°07'0 0.0
2017-Sep-26 14:01N 38°26' W 009°07'0 0.0
2017-Sep-26 13:30N 38°26' W 009°07'0 0.0
2017-Sep-26 13:01N 38°26' W 009°07'0 0.0
2017-Sep-26 12:30N 38°26' W 009°07'0 0.0
2017-Sep-26 12:00N 38°26' W 009°07'0 0.0
2017-Sep-26 11:30N 38°26' W 009°07'0 0.0
2017-Sep-26 11:00N 38°26' W 009°07'0 0.0
2017-Sep-26 10:30N 38°26' W 009°07'0 0.0
2017-Sep-26 10:00N 38°26' W 009°07'0 0.0
2017-Sep-26 09:30N 38°26' W 009°07'0 0.0
2017-Sep-26 09:00N 38°26' W 009°07'0 0.0
2017-Sep-26 08:30N 38°26' W 009°07'0 0.0
2017-Sep-26 08:00N 38°26' W 009°07'0 0.0
2017-Sep-26 07:29N 38°26' W 009°07'0 0.0
2017-Sep-26 07:00N 38°26' W 009°07'0 0.0
2017-Sep-26 06:30N 38°26' W 009°07'0 0.0
2017-Sep-26 06:00N 38°26' W 009°07'0 0.0
2017-Sep-26 05:31N 38°26' W 009°07'0 0.0
2017-Sep-26 05:00N 38°26' W 009°07'0 0.0
2017-Sep-26 04:29N 38°26' W 009°07'0 0.0
2017-Sep-26 04:00N 38°26' W 009°07'0 0.0
2017-Sep-26 03:30N 38°26' W 009°07'0 0.0
2017-Sep-26 03:00N 38°26' W 009°07'0 0.0
2017-Sep-26 02:30N 38°26' W 009°07'0 0.0
2017-Sep-26 01:58N 38°26' W 009°07'5 6.8
2017-Sep-26 01:14N 38°24' W 009°12'2 8.7
2017-Sep-26 00:58N 38°25' W 009°15'4 8.5
2017-Sep-26 00:30N 38°26' W 009°20'4 8.9
2017-Sep-26 00:00N 38°29' W 009°25'5 9.0
2017-Sep-25 23:30N 38°31' W 009°29'4 8.8
2017-Sep-25 23:00N 38°33' W 009°34'5 9.1
2017-Sep-25 22:30N 38°36' W 009°39'4 8.9
2017-Sep-25 22:00N 38°38' W 009°44'4 8.8
2017-Sep-25 21:30N 38°40' W 009°49'4 8.7
2017-Sep-25 21:00N 38°43' W 009°54'5 9.0
2017-Sep-25 20:30N 38°45' W 009°58'4 8.9
2017-Sep-25 20:00N 38°48' W 010°03'5 9.9
2017-Sep-25 19:30N 38°51' W 010°08'510.3
2017-Sep-25 19:00N 38°54' W 010°13'3 5.7
2017-Sep-25 18:30N 38°57' W 010°14'3 4.8
2017-Sep-25 17:58N 38°59' W 010°16'2 4.1
2017-Sep-25 17:29N 38°60' W 010°18'2 4.2
2017-Sep-25 17:00N 39°01' W 010°20'2 3.2
2017-Sep-25 16:26N 39°03' W 010°21'1 1.8
2017-Sep-25 16:00N 39°02' W 010°21'0 0.3
2017-Sep-25 15:30N 39°02' W 010°21'16 1.4
2017-Sep-25 03:43N 38°48' W 010°09'3 8.6
2017-Sep-25 03:24N 38°47' W 010°06'3 8.4
2017-Sep-25 02:59N 38°45' W 010°02'4 8.8
2017-Sep-25 02:30N 38°43' W 009°57'5 9.0
2017-Sep-25 02:00N 38°41' W 009°52'4 8.7
2017-Sep-25 01:30N 38°39' W 009°47'4 8.2
2017-Sep-25 01:00N 38°37' W 009°43'4 8.2
2017-Sep-25 00:30N 38°35' W 009°39'4 8.5
2017-Sep-25 00:00N 38°32' W 009°34'4 8.4
2017-Sep-24 23:31N 38°30' W 009°29'4 8.4
2017-Sep-24 23:00N 38°28' W 009°24'4 8.7
2017-Sep-24 22:30N 38°26' W 009°19'4 8.6
2017-Sep-24 22:00N 38°25' W 009°15'6 8.2
2017-Sep-24 21:16N 38°26' W 009°07'1 2.0
2017-Sep-24 21:00N 38°26' W 009°07'0 0.0
2017-Sep-24 20:30N 38°26' W 009°07'0 0.0
2017-Sep-24 20:00N 38°26' W 009°07'0 0.0
2017-Sep-24 19:30N 38°26' W 009°07'0 0.0
2017-Sep-24 19:00N 38°26' W 009°07'0 0.0
2017-Sep-24 18:30N 38°26' W 009°07'0 0.0
2017-Sep-24 18:00N 38°26' W 009°07'0 0.0
2017-Sep-24 17:30N 38°26' W 009°07'0 0.0
2017-Sep-24 17:00N 38°26' W 009°07'0 0.0
2017-Sep-24 16:30N 38°26' W 009°07'0 0.0
2017-Sep-24 16:00N 38°26' W 009°07'0 0.0
2017-Sep-24 15:30N 38°26' W 009°07'0 0.0
2017-Sep-24 15:00N 38°26' W 009°07'0 0.0
2017-Sep-24 14:30N 38°26' W 009°07'0 0.0
2017-Sep-24 14:00N 38°26' W 009°07'0 0.0
2017-Sep-24 13:30N 38°26' W 009°07'0 0.0
2017-Sep-24 13:00N 38°26' W 009°07'0 0.0
2017-Sep-24 12:30N 38°26' W 009°07'0 0.0
2017-Sep-24 12:00N 38°26' W 009°07'0 0.0
2017-Sep-24 11:30N 38°26' W 009°07'0 0.0
2017-Sep-24 11:00N 38°26' W 009°07'0 0.0
2017-Sep-24 10:30N 38°26' W 009°07'0 0.0
2017-Sep-24 10:00N 38°26' W 009°07'0 0.0
2017-Sep-24 09:30N 38°26' W 009°07'0 0.0
2017-Sep-24 09:00N 38°26' W 009°07'0 0.0
2017-Sep-24 08:30N 38°26' W 009°07'0 0.0
2017-Sep-24 08:00N 38°26' W 009°07'0 0.0
2017-Sep-24 07:30N 38°26' W 009°07'0 0.0
2017-Sep-24 07:00N 38°26' W 009°07'0 0.0
2017-Sep-24 06:30N 38°26' W 009°07'3 5.7
2017-Sep-24 06:00N 38°25' W 009°10'4 8.2
2017-Sep-24 05:29N 38°25' W 009°15'4 8.5
2017-Sep-24 05:00N 38°27' W 009°20'4 8.9
2017-Sep-24 04:30N 38°28' W 009°25'4 8.9
2017-Sep-24 04:00N 38°31' W 009°30'5 9.2
2017-Sep-24 03:30N 38°33' W 009°35'5 9.1
2017-Sep-24 03:00N 38°35' W 009°40'5 9.1
2017-Sep-24 02:30N 38°38' W 009°45'4 8.9
2017-Sep-24 02:00N 38°41' W 009°49'4 8.5
2017-Sep-24 01:30N 38°43' W 009°54'4 8.4
2017-Sep-24 01:00N 38°45' W 009°58'4 8.6
2017-Sep-24 00:31N 38°48' W 010°03'5 9.1
2017-Sep-24 00:00N 38°50' W 010°08'5 9.0
2017-Sep-23 23:30N 38°53' W 010°13'2 5.0
2017-Sep-23 23:00N 38°55' W 010°14'2 4.6
2017-Sep-23 22:30N 38°57' W 010°15'2 4.3
2017-Sep-23 22:00N 38°59' W 010°17'2 4.0
2017-Sep-23 21:30N 39°00' W 010°19'2 4.4
2017-Sep-23 21:00N 39°02' W 010°20'1 1.1
2017-Sep-23 20:30N 39°02' W 010°20'4 8.2
2017-Sep-23 20:00N 38°58' W 010°17'56 1.3
2017-Sep-22 02:00N 38°26' W 009°19'5 9.0
2017-Sep-22 01:30N 38°28' W 009°24'5 9.2
2017-Sep-22 00:58N 38°31' W 009°30'4 9.3
2017-Sep-22 00:30N 38°33' W 009°34'5 9.3
2017-Sep-22 00:00N 38°35' W 009°40'5 9.1
2017-Sep-21 23:30N 38°38' W 009°44'4 9.0
2017-Sep-21 23:00N 38°40' W 009°49'4 8.6
2017-Sep-21 22:30N 38°43' W 009°54'4 8.8
2017-Sep-21 22:00N 38°45' W 009°58'5 9.7
2017-Sep-21 21:30N 38°48' W 010°03'16 5.9
2017-Sep-21 18:47N 38°60' W 010°18'14 0.9
2017-Sep-21 03:30N 38°48' W 010°08'4 8.2
2017-Sep-21 03:01N 38°46' W 010°03'4 8.4
2017-Sep-21 02:30N 38°44' W 009°58'4 8.6
2017-Sep-21 01:59N 38°42' W 009°53'4 8.3
2017-Sep-21 01:30N 38°40' W 009°49'4 8.7
2017-Sep-21 01:00N 38°38' W 009°44'4 8.3
2017-Sep-21 00:31N 38°36' W 009°39'4 8.2
2017-Sep-21 00:00N 38°34' W 009°35'4 8.2
2017-Sep-20 23:30N 38°31' W 009°30'4 8.1
2017-Sep-20 23:01N 38°30' W 009°26'4 8.5
2017-Sep-20 22:30N 38°28' W 009°21'4 8.6
2017-Sep-20 22:00N 38°26' W 009°16'6 8.1
2017-Sep-20 21:14N 38°25' W 009°08'2 6.9
2017-Sep-20 21:00N 38°26' W 009°07'0 0.0
2017-Sep-20 20:30N 38°26' W 009°07'0 0.0
2017-Sep-20 20:00N 38°26' W 009°07'0 0.0
2017-Sep-20 19:30N 38°26' W 009°07'0 0.0
2017-Sep-20 19:00N 38°26' W 009°07'0 0.0
2017-Sep-20 18:30N 38°26' W 009°07'0 0.0
2017-Sep-20 18:00N 38°26' W 009°07'0 0.0
2017-Sep-20 17:30N 38°26' W 009°07'0 0.0
2017-Sep-20 17:00N 38°26' W 009°07'0 0.0
2017-Sep-20 16:30N 38°26' W 009°07'0 0.0
2017-Sep-20 16:00N 38°26' W 009°07'0 0.0
2017-Sep-20 15:30N 38°26' W 009°07'0 0.0
2017-Sep-20 15:00N 38°26' W 009°07'0 0.0
2017-Sep-20 14:00N 38°26' W 009°07'0 0.0
2017-Sep-20 13:30N 38°26' W 009°07'0 0.0
2017-Sep-20 13:00N 38°26' W 009°07'0 0.0
2017-Sep-20 12:29N 38°26' W 009°07'0 0.0
2017-Sep-20 12:00N 38°26' W 009°07'0 0.0
2017-Sep-20 11:30N 38°26' W 009°07'0 0.0
2017-Sep-20 11:00N 38°26' W 009°07'0 0.0
2017-Sep-20 10:30N 38°26' W 009°07'0 0.0
2017-Sep-20 10:00N 38°26' W 009°07'0 0.0
2017-Sep-20 09:10N 38°26' W 009°07'0 0.0
2017-Sep-20 09:00N 38°26' W 009°07'0 0.0
2017-Sep-20 08:28N 38°26' W 009°07'0 0.0
2017-Sep-20 08:00N 38°26' W 009°07'0 0.0
2017-Sep-20 07:14N 38°26' W 009°07'0 0.0
2017-Sep-20 07:00N 38°26' W 009°07'0 0.1
2017-Sep-20 06:30N 38°26' W 009°07'4 7.7
2017-Sep-20 05:59N 38°24' W 009°11'4 8.6
2017-Sep-20 05:30N 38°24' W 009°16'5 9.0
2017-Sep-20 05:00N 38°26' W 009°21'5 9.6
2017-Sep-20 04:30N 38°29' W 009°26'5 9.2
2017-Sep-20 03:59N 38°33' W 009°31'4 8.9
2017-Sep-20 03:30N 38°35' W 009°35'4 8.6
2017-Sep-20 03:00N 38°38' W 009°39'5 9.0
2017-Sep-20 02:30N 38°40' W 009°44'2 4.0
2017-Sep-20 02:00N 38°41' W 009°46'3 5.4
2017-Sep-20 01:30N 38°41' W 009°50'4 8.7
2017-Sep-20 00:59N 38°44' W 009°54'4 8.8
2017-Sep-20 00:30N 38°46' W 009°59'4 8.9
2017-Sep-20 00:01N 38°49' W 010°04'5 8.6
2017-Sep-19 23:29N 38°51' W 010°09'12 5.0
2017-Sep-19 21:10N 38°60' W 010°18'1 4.7
2017-Sep-19 20:52N 39°01' W 010°20'3 1.4
2017-Sep-19 19:00N 38°58' W 010°18'0 0.3
2017-Sep-19 17:45N 38°58' W 010°18'0 0.5
2017-Sep-19 17:20N 38°58' W 010°17'0 0.3
2017-Sep-19 17:01N 38°58' W 010°17'0 0.3
2017-Sep-19 16:09N 38°58' W 010°17'0 0.5
2017-Sep-19 15:52N 38°58' W 010°17'0 0.6
2017-Sep-19 15:26N 38°58' W 010°17'3 0.6
2017-Sep-19 11:21N 38°56' W 010°15'9 1.1
2017-Sep-19 03:07N 38°48' W 010°08'1 7.5
2017-Sep-19 02:58N 38°48' W 010°07'4 7.8
2017-Sep-19 02:29N 38°45' W 010°04'4 8.2
2017-Sep-19 02:00N 38°43' W 009°59'4 8.0
2017-Sep-19 01:30N 38°41' W 009°55'4 7.9
2017-Sep-19 01:00N 38°39' W 009°51'4 7.7
2017-Sep-19 00:31N 38°37' W 009°46'4 8.4
2017-Sep-19 00:01N 38°35' W 009°42'4 8.5
2017-Sep-18 23:30N 38°33' W 009°37'4 8.6
2017-Sep-18 23:00N 38°31' W 009°32'4 8.5
2017-Sep-18 22:30N 38°29' W 009°27'4 8.6
2017-Sep-18 22:00N 38°27' W 009°22'4 8.3
2017-Sep-18 21:30N 38°25' W 009°18'4 8.2
2017-Sep-18 21:00N 38°24' W 009°13'4 8.6
2017-Sep-18 20:30N 38°25' W 009°08'1 2.6
2017-Sep-18 20:00N 38°26' W 009°07'0 0.0
2017-Sep-18 19:30N 38°26' W 009°07'0 0.0
2017-Sep-18 19:00N 38°26' W 009°07'0 0.0
2017-Sep-18 18:30N 38°26' W 009°07'0 0.0
2017-Sep-18 18:00N 38°26' W 009°07'0 0.0
2017-Sep-18 17:30N 38°26' W 009°07'0 0.0
2017-Sep-18 17:00N 38°26' W 009°07'0 0.0
2017-Sep-18 16:30N 38°26' W 009°07'0 0.0
2017-Sep-18 16:00N 38°26' W 009°07'0 0.0
2017-Sep-18 15:30N 38°26' W 009°07'0 0.0
2017-Sep-18 15:00N 38°26' W 009°07'0 0.0
2017-Sep-18 14:30N 38°26' W 009°07'0 0.0
2017-Sep-18 14:00N 38°26' W 009°07'0 0.0
2017-Sep-18 13:30N 38°26' W 009°07'0 0.0
2017-Sep-18 13:00N 38°26' W 009°07'0 0.0
2017-Sep-18 12:30N 38°26' W 009°07'0 0.0
2017-Sep-18 12:00N 38°26' W 009°07'0 0.0
2017-Sep-18 11:30N 38°26' W 009°07'0 0.0
2017-Sep-18 11:00N 38°26' W 009°07'0 0.0
2017-Sep-18 10:30N 38°26' W 009°07'0 0.0
2017-Sep-18 10:00N 38°26' W 009°07'0 0.0
2017-Sep-18 09:30N 38°26' W 009°07'0 0.0
2017-Sep-18 09:00N 38°26' W 009°07'0 0.0
2017-Sep-18 08:29N 38°26' W 009°07'0 0.0
2017-Sep-18 08:00N 38°26' W 009°07'0 0.0
2017-Sep-18 07:30N 38°26' W 009°07'0 0.0
2017-Sep-18 07:00N 38°26' W 009°07'0 0.0
2017-Sep-18 06:30N 38°26' W 009°07'0 0.0
2017-Sep-18 05:59N 38°26' W 009°07'0 0.0
2017-Sep-18 05:30N 38°26' W 009°07'0 0.0
2017-Sep-18 05:00N 38°26' W 009°07'0 0.0
2017-Sep-18 04:30N 38°26' W 009°07'0 0.0
2017-Sep-18 04:00N 38°26' W 009°07'0 0.0
2017-Sep-18 03:30N 38°26' W 009°07'0 0.0
2017-Sep-18 03:00N 38°26' W 009°07'0 0.0
2017-Sep-18 02:30N 38°26' W 009°07'0 0.0
2017-Sep-18 02:00N 38°26' W 009°07'0 0.0
2017-Sep-18 01:30N 38°26' W 009°07'0 0.0
2017-Sep-18 01:00N 38°26' W 009°07'0 0.0
2017-Sep-18 00:27N 38°26' W 009°07'0 0.0
2017-Sep-18 00:00N 38°26' W 009°07'0 0.0
2017-Sep-17 23:30N 38°26' W 009°07'0 0.0
2017-Sep-17 23:00N 38°26' W 009°07'0 0.0
2017-Sep-17 22:30N 38°26' W 009°07'0 0.0
2017-Sep-17 22:00N 38°26' W 009°07'0 0.0
2017-Sep-17 21:30N 38°26' W 009°07'0 0.0
2017-Sep-17 20:59N 38°26' W 009°07'0 0.0
2017-Sep-17 20:30N 38°26' W 009°07'0 0.0
2017-Sep-17 20:00N 38°26' W 009°07'0 0.0
2017-Sep-17 19:30N 38°26' W 009°07'0 0.0
2017-Sep-17 19:00N 38°26' W 009°07'0 0.0
2017-Sep-17 18:30N 38°26' W 009°07'0 0.0
2017-Sep-17 18:00N 38°26' W 009°07'0 0.0
2017-Sep-17 17:30N 38°26' W 009°07'0 0.0
2017-Sep-17 17:00N 38°26' W 009°07'2 3.2
2017-Sep-17 16:30N 38°25' W 009°08'4 8.3
2017-Sep-17 16:00N 38°24' W 009°13'4 8.9
2017-Sep-17 15:30N 38°27' W 009°18'5 9.2
2017-Sep-17 15:00N 38°29' W 009°23'5 9.1
2017-Sep-17 14:30N 38°32' W 009°28'5 9.3
2017-Sep-17 14:00N 38°35' W 009°32'5 9.1
2017-Sep-17 13:30N 38°38' W 009°36'4 8.9
2017-Sep-17 13:01N 38°41' W 009°41'4 8.9
2017-Sep-17 12:30N 38°43' W 009°46'4 8.9
2017-Sep-17 12:00N 38°46' W 009°51'5 9.4
2017-Sep-17 11:30N 38°48' W 009°56'4 8.8
2017-Sep-17 11:00N 38°50' W 010°00'5 8.9
2017-Sep-17 10:24N 38°54' W 010°06'4 8.9
2017-Sep-17 10:00N 38°56' W 010°10'4 9.2
2017-Sep-17 09:31N 38°58' W 010°15'11 2.0
2017-Sep-17 04:14N 38°50' W 010°05'2 7.2
2017-Sep-17 03:55N 38°49' W 010°03'3 7.1
2017-Sep-17 03:31N 38°48' W 009°59'4 7.4
2017-Sep-17 03:00N 38°46' W 009°55'4 7.5
2017-Sep-17 02:30N 38°44' W 009°51'4 7.5
2017-Sep-17 02:00N 38°42' W 009°47'4 7.5
2017-Sep-17 01:31N 38°39' W 009°43'4 7.5
2017-Sep-17 01:00N 38°37' W 009°39'4 8.0
2017-Sep-17 00:30N 38°35' W 009°35'4 8.0
2017-Sep-17 00:00N 38°33' W 009°31'4 8.1
2017-Sep-16 23:30N 38°31' W 009°27'4 7.9
2017-Sep-16 23:00N 38°28' W 009°23'4 7.9
2017-Sep-16 22:30N 38°26' W 009°18'4 7.9
2017-Sep-16 22:00N 38°24' W 009°14'  

Dump ship's entire track history